Wetterdaten: Woche 08.10.18 - 14.10.18 (KW41)
Datum Zeit Temp. A. Feuchte A. Luftdruck Regen Wind Richtung Taupunkt Windchill Windben
08.10.2018 00:00 17,1 C 78 % 1017,2 hPa 0,0 l/m 3,2 km/h N 13,1 C 17,1 C 10,9 km/h
08.10.2018 01:00 16,7 C 78 % 1017,6 hPa 0,0 l/m 4,6 km/h N 12,9 C 16,7 C 14,5 km/h
08.10.2018 02:00 16,3 C 78 % 1017,9 hPa 0,0 l/m 4,0 km/h N 12,4 C 16,3 C 12,9 km/h
08.10.2018 03:00 16,0 C 78 % 1018,1 hPa 0,0 l/m 3,0 km/h N 12,2 C 16,0 C 10,1 km/h
08.10.2018 04:00 15,6 C 79 % 1018,4 hPa 0,0 l/m 2,2 km/h N 11,9 C 15,6 C 8,9 km/h
08.10.2018 05:00 15,1 C 79 % 1019,0 hPa 0,0 l/m 3,7 km/h N 11,5 C 15,1 C 11,7 km/h
08.10.2018 06:00 14,4 C 78 % 1019,5 hPa 0,0 l/m 3,4 km/h N 10,6 C 14,4 C 11,7 km/h
08.10.2018 07:00 13,8 C 77 % 1020,0 hPa 0,0 l/m 3,5 km/h N 9,9 C 13,8 C 11,7 km/h
08.10.2018 08:00 13,7 C 77 % 1020,8 hPa 0,0 l/m 4,4 km/h N 9,7 C 13,7 C 15,3 km/h
08.10.2018 09:00 13,8 C 77 % 1021,4 hPa 0,0 l/m 3,7 km/h N 9,8 C 13,8 C 11,3 km/h
08.10.2018 10:00 14,2 C 76 % 1021,7 hPa 0,0 l/m 4,2 km/h N 10,1 C 14,2 C 14,9 km/h
08.10.2018 11:00 15,2 C 75 % 1021,8 hPa 0,0 l/m 6,0 km/h N 10,8 C 15,2 C 14,1 km/h
08.10.2018 12:00 16,8 C 73 % 1021,6 hPa 0,0 l/m 5,1 km/h N 11,8 C 16,8 C 14,9 km/h
08.10.2018 13:00 17,4 C 70 % 1021,3 hPa 0,0 l/m 3,4 km/h N 11,9 C 17,4 C 11,3 km/h
08.10.2018 14:00 17,7 C 70 % 1021,0 hPa 0,0 l/m 3,8 km/h N 12,2 C 17,7 C 12,5 km/h
08.10.2018 15:00 18,1 C 69 % 1020,6 hPa 0,0 l/m 3,3 km/h N 12,3 C 18,1 C 11,7 km/h
08.10.2018 16:00 18,2 C 70 % 1020,4 hPa 0,0 l/m 2,0 km/h N 12,5 C 18,2 C 10,0 km/h
08.10.2018 17:00 17,6 C 71 % 1020,5 hPa 0,0 l/m 1,6 km/h N 12,3 C 17,6 C 7,2 km/h
08.10.2018 18:00 16,6 C 74 % 1020,9 hPa 0,0 l/m 0,3 km/h N 11,9 C 16,6 C 4,0 km/h
08.10.2018 19:00 14,9 C 78 % 1021,4 hPa 0,0 l/m 0,1 km/h N 11,0 C 14,9 C 0,8 km/h
08.10.2018 20:00 13,4 C 80 % 1021,8 hPa 0,0 l/m 0,1 km/h N 10,0 C 13,4 C 0,8 km/h
08.10.2018 21:00 12,4 C 80 % 1022,1 hPa 0,0 l/m 0,0 km/h N 9,0 C 12,4 C 0,4 km/h
08.10.2018 22:00 11,6 C 80 % 1022,5 hPa 0,0 l/m 0,0 km/h N 8,3 C 11,6 C 0,8 km/h
08.10.2018 23:00 11,0 C 80 % 1022,5 hPa 0,0 l/m 0,0 km/h N 7,7 C 11,0 C 0,0 km/h
09.10.2018 00:00 10,6 C 80 % 1022,4 hPa 0,0 l/m 0,0 km/h N 7,3 C 10,6 C 0,4 km/h
09.10.2018 01:00 10,2 C 80 % 1022,2 hPa 0,0 l/m 0,0 km/h N 6,9 C 10,2 C 0,0 km/h
09.10.2018 02:00 9,8 C 81 % 1022,1 hPa 0,0 l/m 0,0 km/h N 6,6 C 9,8 C 0,4 km/h
09.10.2018 03:00 9,5 C 81 % 1022,1 hPa 0,0 l/m 0,0 km/h N 6,4 C 9,5 C 0,4 km/h
09.10.2018 04:00 8,8 C 81 % 1022,2 hPa 0,0 l/m 0,0 km/h N 5,7 C 8,8 C 0,0 km/h
09.10.2018 05:00 8,2 C 81 % 1022,4 hPa 0,0 l/m 0,0 km/h N 5,1 C 8,2 C 0,0 km/h
09.10.2018 06:00 7,9 C 81 % 1022,7 hPa 0,0 l/m 0,0 km/h N 4,8 C 7,9 C 0,8 km/h
09.10.2018 07:00 8,1 C 81 % 1023,1 hPa 0,0 l/m 0,0 km/h N 5,1 C 8,1 C 0,4 km/h
09.10.2018 08:00 8,6 C 82 % 1023,7 hPa 0,0 l/m 0,0 km/h N 5,6 C 8,6 C 0,0 km/h
09.10.2018 09:00 10,5 C 82 % 1023,9 hPa 0,0 l/m 0,1 km/h N 7,6 C 10,5 C 1,6 km/h
09.10.2018 10:00 12,5 C 82 % 1024,0 hPa 0,0 l/m 0,3 km/h N 9,5 C 12,5 C 3,2 km/h
09.10.2018 11:00 15,1 C 81 % 1023,8 hPa 0,0 l/m 0,2 km/h N 11,8 C 15,1 C 4,8 km/h
09.10.2018 12:00 18,0 C 76 % 1023,8 hPa 0,0 l/m 0,6 km/h N 13,5 C 18,0 C 7,2 km/h
09.10.2018 13:00 19,8 C 70 % 1023,2 hPa 0,0 l/m 1,0 km/h N 14,0 C 19,8 C 7,6 km/h
09.10.2018 14:00 20,3 C 69 % 1022,8 hPa 0,0 l/m 1,6 km/h N 14,4 C 20,3 C 10,9 km/h
09.10.2018 15:00 20,8 C 67 % 1022,6 hPa 0,0 l/m 0,8 km/h N 14,4 C 20,8 C 7,6 km/h
09.10.2018 16:00 21,4 C 64 % 1022,1 hPa 0,0 l/m 0,3 km/h N 14,2 C 21,4 C 4,8 km/h
09.10.2018 17:00 20,7 C 66 % 1022,2 hPa 0,0 l/m 0,1 km/h N 14,1 C 20,7 C 4,8 km/h
09.10.2018 18:00 19,3 C 69 % 1022,5 hPa 0,0 l/m 0,0 km/h N 13,4 C 19,3 C 0,8 km/h
09.10.2018 19:00 16,8 C 74 % 1022,8 hPa 0,0 l/m 0,0 km/h N 12,2 C 16,8 C 0,0 km/h
09.10.2018 20:00 15,0 C 78 % 1022,7 hPa 0,0 l/m 0,0 km/h N 11,2 C 15,0 C 0,0 km/h
09.10.2018 21:00 13,7 C 80 % 1023,3 hPa 0,0 l/m 0,0 km/h N 10,2 C 13,7 C 0,0 km/h
09.10.2018 22:00 12,6 C 80 % 1023,7 hPa 0,0 l/m 0,0 km/h N 9,3 C 12,6 C 0,0 km/h
09.10.2018 23:00 11,7 C 80 % 1023,5 hPa 0,0 l/m 0,0 km/h N 8,4 C 11,7 C 0,0 km/h
10.10.2018 00:00 11,0 C 80 % 1023,3 hPa 0,0 l/m 0,0 km/h N 7,6 C 11,0 C 0,0 km/h
10.10.2018 01:00 10,7 C 80 % 1023,6 hPa 0,0 l/m 0,0 km/h N 7,4 C 10,7 C 0,0 km/h
10.10.2018 02:00 10,2 C 80 % 1023,5 hPa 0,0 l/m 0,0 km/h N 6,9 C 10,2 C 0,0 km/h
10.10.2018 03:00 9,6 C 80 % 1023,2 hPa 0,0 l/m 0,0 km/h N 6,3 C 9,6 C 0,0 km/h
10.10.2018 04:00 9,4 C 81 % 1023,4 hPa 0,0 l/m 0,0 km/h N 6,3 C 9,4 C 0,0 km/h
10.10.2018 05:00 9,1 C 81 % 1023,5 hPa 0,0 l/m 0,0 km/h N 6,0 C 9,1 C 0,0 km/h
10.10.2018 06:00 8,5 C 81 % 1023,6 hPa 0,0 l/m 0,0 km/h N 5,4 C 8,5 C 0,0 km/h
10.10.2018 07:00 8,1 C 81 % 1023,7 hPa 0,3 l/m 0,0 km/h N 5,0 C 8,1 C 0,0 km/h
10.10.2018 08:00 8,7 C 82 % 1024,3 hPa 0,0 l/m 0,0 km/h N 5,7 C 8,7 C 0,0 km/h
10.10.2018 09:00 11,6 C 82 % 1024,5 hPa 0,0 l/m 0,0 km/h N 8,6 C 11,6 C 0,8 km/h
10.10.2018 10:00 13,8 C 82 % 1024,5 hPa 0,0 l/m 0,2 km/h N 10,8 C 13,8 C 3,6 km/h
10.10.2018 11:00 16,0 C 82 % 1024,3 hPa 0,0 l/m 0,2 km/h N 12,9 C 16,0 C 4,0 km/h
10.10.2018 12:00 19,0 C 78 % 1023,7 hPa 0,0 l/m 0,7 km/h N 15,1 C 19,0 C 6,4 km/h
10.10.2018 13:00 22,4 C 64 % 1023,0 hPa 0,0 l/m 2,8 km/h N 15,1 C 22,4 C 8,0 km/h
10.10.2018 14:00 22,6 C 61 % 1022,6 hPa 0,0 l/m 3,2 km/h N 14,7 C 22,6 C 8,4 km/h
10.10.2018 15:00 22,6 C 58 % 1022,2 hPa 0,0 l/m 2,7 km/h N 13,9 C 22,6 C 9,3 km/h
10.10.2018 16:00 22,2 C 55 % 1022,0 hPa 0,0 l/m 3,4 km/h N 12,6 C 22,2 C 10,9 km/h
10.10.2018 17:00 21,5 C 56 % 1021,9 hPa 0,0 l/m 1,5 km/h N 12,2 C 21,5 C 5,6 km/h
10.10.2018 18:00 20,1 C 59 % 1022,2 hPa 0,0 l/m 0,5 km/h N 11,7 C 20,1 C 4,0 km/h
10.10.2018 19:00 18,4 C 64 % 1022,8 hPa 0,0 l/m 0,0 km/h N 11,3 C 18,4 C 2,8 km/h
10.10.2018 20:00 16,8 C 68 % 1022,8 hPa 0,0 l/m 0,1 km/h N 10,8 C 16,8 C 2,8 km/h
10.10.2018 21:00 15,2 C 73 % 1022,9 hPa 0,0 l/m 0,0 km/h N 10,3 C 15,2 C 1,2 km/h
10.10.2018 22:00 13,6 C 76 % 1022,8 hPa 0,0 l/m 0,0 km/h N 9,4 C 13,6 C 0,0 km/h
10.10.2018 23:00 12,9 C 79 % 1022,5 hPa 0,0 l/m 0,0 km/h N 9,4 C 12,9 C 0,8 km/h
11.10.2018 00:00 12,5 C 78 % 1022,4 hPa 0,0 l/m 0,0 km/h N 8,8 C 12,5 C 0,0 km/h
11.10.2018 01:00 11,3 C 80 % 1022,4 hPa 0,0 l/m 0,0 km/h N 7,9 C 11,3 C 0,0 km/h
11.10.2018 02:00 10,2 C 80 % 1022,4 hPa 0,0 l/m 0,0 km/h N 6,9 C 10,2 C 0,0 km/h
11.10.2018 03:00 9,5 C 80 % 1022,3 hPa 0,0 l/m 0,0 km/h N 6,2 C 9,5 C 0,0 km/h
11.10.2018 04:00 9,2 C 80 % 1022,2 hPa 0,0 l/m 0,0 km/h N 5,9 C 9,2 C 0,0 km/h
11.10.2018 05:00 8,5 C 80 % 1022,2 hPa 0,0 l/m 0,1 km/h N 5,2 C 8,5 C 1,6 km/h
11.10.2018 06:00 8,1 C 80 % 1022,0 hPa 0,0 l/m 0,0 km/h N 4,9 C 8,1 C 0,0 km/h
11.10.2018 07:00 8,0 C 81 % 1022,3 hPa 0,0 l/m 0,0 km/h N 5,0 C 8,0 C 0,0 km/h
11.10.2018 08:00 8,7 C 81 % 1022,8 hPa 0,0 l/m 0,0 km/h N 5,7 C 8,7 C 0,0 km/h
11.10.2018 09:00 11,0 C 82 % 1022,9 hPa 0,0 l/m 0,0 km/h N 8,0 C 11,0 C 1,2 km/h
11.10.2018 10:00 13,1 C 82 % 1023,0 hPa 0,0 l/m 0,3 km/h N 10,1 C 13,1 C 3,6 km/h
11.10.2018 11:00 16,9 C 79 % 1022,3 hPa 0,0 l/m 0,6 km/h N 13,2 C 16,9 C 5,6 km/h
11.10.2018 12:00 21,9 C 60 % 1021,7 hPa 0,0 l/m 2,2 km/h N 13,6 C 21,9 C 7,2 km/h
11.10.2018 13:00 23,5 C 54 % 1021,2 hPa 0,0 l/m 2,6 km/h N 13,5 C 23,5 C 12,1 km/h
11.10.2018 14:00 22,9 C 55 % 1020,8 hPa 0,0 l/m 2,6 km/h N 13,4 C 22,9 C 9,7 km/h
11.10.2018 15:00 23,3 C 50 % 1020,5 hPa 0,0 l/m 3,4 km/h N 12,3 C 23,3 C 11,3 km/h
11.10.2018 16:00 23,0 C 48 % 1020,5 hPa 0,0 l/m 2,8 km/h N 11,4 C 23,0 C 10,1 km/h
11.10.2018 17:00 22,2 C 50 % 1020,5 hPa 0,0 l/m 2,1 km/h N 11,3 C 22,2 C 9,3 km/h
11.10.2018 18:00 21,1 C 54 % 1020,9 hPa 0,0 l/m 0,6 km/h N 11,4 C 21,1 C 6,4 km/h
11.10.2018 19:00 19,6 C 57 % 1021,3 hPa 0,0 l/m 0,1 km/h N 10,9 C 19,6 C 3,6 km/h
11.10.2018 20:00 17,3 C 65 % 1021,5 hPa 0,0 l/m 0,0 km/h N 10,5 C 17,3 C 0,4 km/h
11.10.2018 21:00 15,9 C 71 % 1021,9 hPa 0,0 l/m 0,0 km/h N 10,6 C 15,9 C 1,2 km/h
11.10.2018 22:00 15,1 C 72 % 1022,0 hPa 0,0 l/m 0,0 km/h N 10,1 C 15,1 C 0,0 km/h
11.10.2018 23:00 13,6 C 76 % 1022,0 hPa 0,0 l/m 0,0 km/h N 9,4 C 13,6 C 0,0 km/h
12.10.2018 00:00 12,8 C 78 % 1021,9 hPa 0,0 l/m 0,0 km/h N 9,0 C 12,8 C 0,0 km/h
12.10.2018 01:00 12,7 C 80 % 1021,7 hPa 0,0 l/m 0,0 km/h N 9,3 C 12,7 C 0,4 km/h
12.10.2018 02:00 13,4 C 80 % 1021,7 hPa 0,0 l/m 0,1 km/h N 10,0 C 13,4 C 2,0 km/h
12.10.2018 03:00 12,6 C 79 % 1021,9 hPa 0,0 l/m 0,0 km/h N 9,2 C 12,6 C 1,2 km/h
12.10.2018 04:00 12,0 C 80 % 1021,9 hPa 0,0 l/m 0,0 km/h N 8,7 C 12,0 C 0,4 km/h
12.10.2018 05:00 10,9 C 80 % 1022,7 hPa 0,0 l/m 0,0 km/h N 7,6 C 10,9 C 0,4 km/h
12.10.2018 06:00 9,9 C 80 % 1023,3 hPa 0,0 l/m 0,0 km/h N 6,7 C 9,9 C 0,0 km/h
12.10.2018 07:00 10,5 C 80 % 1023,9 hPa 0,0 l/m 0,0 km/h N 7,2 C 10,5 C 0,4 km/h
12.10.2018 08:00 11,4 C 80 % 1024,7 hPa 0,0 l/m 0,0 km/h N 8,0 C 11,4 C 0,8 km/h
12.10.2018 09:00 12,8 C 80 % 1025,3 hPa 0,0 l/m 0,1 km/h N 9,4 C 12,8 C 3,2 km/h
12.10.2018 10:00 15,9 C 79 % 1025,6 hPa 0,0 l/m 0,1 km/h N 12,3 C 15,9 C 3,2 km/h
12.10.2018 11:00 20,5 C 63 % 1025,4 hPa 0,0 l/m 1,9 km/h N 12,9 C 20,5 C 7,6 km/h
12.10.2018 12:00 22,6 C 50 % 1025,4 hPa 0,0 l/m 3,8 km/h N 11,5 C 22,6 C 11,7 km/h
12.10.2018 13:00 23,5 C 47 % 1025,1 hPa 0,0 l/m 2,9 km/h N 11,5 C 23,5 C 10,1 km/h
12.10.2018 14:00 23,2 C 46 % 1025,0 hPa 0,0 l/m 1,7 km/h N 11,0 C 23,2 C 9,7 km/h
12.10.2018 15:00 23,0 C 47 % 1025,1 hPa 0,0 l/m 1,2 km/h N 11,0 C 23,0 C 6,8 km/h
12.10.2018 16:00 21,8 C 49 % 1025,2 hPa 0,0 l/m 1,6 km/h N 10,6 C 21,8 C 6,8 km/h
12.10.2018 17:00 20,6 C 52 % 1025,5 hPa 0,0 l/m 0,8 km/h N 10,3 C 20,6 C 4,4 km/h
12.10.2018 18:00 19,1 C 54 % 1025,8 hPa 0,0 l/m 0,1 km/h N 9,6 C 19,1 C 2,4 km/h
12.10.2018 19:00 16,4 C 61 % 1026,3 hPa 0,0 l/m 0,0 km/h N 8,9 C 16,4 C 0,0 km/h
12.10.2018 20:00 13,4 C 71 % 1026,7 hPa 0,0 l/m 0,0 km/h N 8,3 C 13,4 C 0,0 km/h
12.10.2018 21:00 11,5 C 76 % 1026,8 hPa 0,0 l/m 0,0 km/h N 7,3 C 11,5 C 0,0 km/h
12.10.2018 22:00 10,2 C 79 % 1026,9 hPa 0,0 l/m 0,0 km/h N 6,8 C 10,2 C 0,0 km/h
12.10.2018 23:00 9,4 C 80 % 1026,8 hPa 0,0 l/m 0,0 km/h N 6,2 C 9,4 C 0,0 km/h
13.10.2018 00:00 8,7 C 81 % 1026,6 hPa 0,0 l/m 0,0 km/h N 5,6 C 8,7 C 0,0 km/h
13.10.2018 01:00 7,8 C 81 % 1026,6 hPa 0,0 l/m 0,0 km/h N 4,8 C 7,8 C 0,0 km/h
13.10.2018 02:00 7,2 C 81 % 1026,7 hPa 0,0 l/m 0,0 km/h N 4,1 C 7,2 C 0,0 km/h
13.10.2018 03:00 6,7 C 81 % 1026,4 hPa 0,0 l/m 0,0 km/h N 3,5 C 6,7 C 0,0 km/h
13.10.2018 04:00 6,2 C 81 % 1026,6 hPa 0,0 l/m 0,0 km/h N 3,1 C 6,2 C 0,0 km/h
13.10.2018 05:00 6,0 C 81 % 1026,6 hPa 0,0 l/m 0,0 km/h N 2,9 C 6,0 C 0,0 km/h
13.10.2018 06:00 5,8 C 81 % 1026,8 hPa 0,0 l/m 0,0 km/h N 2,7 C 5,8 C 0,0 km/h
13.10.2018 07:00 5,6 C 81 % 1027,2 hPa 0,0 l/m 0,0 km/h N 2,6 C 5,6 C 0,0 km/h
13.10.2018 08:00 6,3 C 81 % 1027,8 hPa 0,0 l/m 0,0 km/h N 3,3 C 6,3 C 0,0 km/h
13.10.2018 09:00 9,3 C 82 % 1028,0 hPa 0,0 l/m 0,1 km/h N 6,4 C 9,3 C 1,2 km/h
13.10.2018 10:00 11,8 C 82 % 1027,9 hPa 0,0 l/m 0,2 km/h N 8,8 C 11,8 C 2,4 km/h
13.10.2018 11:00 14,9 C 81 % 1027,6 hPa 0,0 l/m 0,1 km/h N 11,6 C 14,9 C 2,8 km/h
13.10.2018 12:00 18,7 C 70 % 1026,7 hPa 0,0 l/m 0,6 km/h N 12,9 C 18,7 C 5,6 km/h
13.10.2018 13:00 22,0 C 54 % 1025,9 hPa 0,0 l/m 3,2 km/h N 12,3 C 22,0 C 9,7 km/h
13.10.2018 14:00 22,3 C 51 % 1025,3 hPa 0,0 l/m 2,7 km/h N 11,7 C 22,3 C 10,5 km/h
13.10.2018 15:00 22,6 C 47 % 1024,9 hPa 0,0 l/m 3,2 km/h N 10,7 C 22,6 C 10,1 km/h
13.10.2018 16:00 21,6 C 47 % 1024,6 hPa 0,0 l/m 3,4 km/h N 9,9 C 21,6 C 12,5 km/h
13.10.2018 17:00 20,5 C 50 % 1024,5 hPa 0,0 l/m 2,3 km/h N 9,8 C 20,5 C 10,1 km/h
13.10.2018 18:00 19,1 C 54 % 1024,6 hPa 0,0 l/m 0,6 km/h N 9,6 C 19,1 C 4,8 km/h
13.10.2018 19:00 17,7 C 58 % 1024,7 hPa 0,0 l/m 0,4 km/h N 9,4 C 17,7 C 4,0 km/h
13.10.2018 20:00 16,8 C 61 % 1024,5 hPa 0,0 l/m 0,1 km/h N 9,2 C 16,8 C 2,4 km/h
13.10.2018 21:00 15,8 C 65 % 1024,5 hPa 0,0 l/m 0,1 km/h N 9,3 C 15,8 C 2,8 km/h
13.10.2018 22:00 14,9 C 69 % 1024,1 hPa 0,0 l/m 0,1 km/h N 9,2 C 14,9 C 2,0 km/h
13.10.2018 23:00 14,1 C 72 % 1023,9 hPa 0,0 l/m 0,1 km/h N 9,1 C 14,1 C 3,2 km/h
14.10.2018 00:00 13,6 C 74 % 1023,6 hPa 0,0 l/m 0,1 km/h N 9,0 C 13,6 C 2,0 km/h
14.10.2018 01:00 13,0 C 75 % 1023,4 hPa 0,0 l/m 0,0 km/h N 8,6 C 13,0 C 1,2 km/h
14.10.2018 02:00 12,0 C 76 % 1023,4 hPa 0,0 l/m 0,0 km/h N 7,9 C 12,0 C 0,0 km/h
14.10.2018 03:00 11,6 C 79 % 1023,1 hPa 0,0 l/m 0,0 km/h N 8,1 C 11,6 C 0,4 km/h
14.10.2018 04:00 11,6 C 79 % 1023,1 hPa 0,0 l/m 0,0 km/h N 8,1 C 11,6 C 0,4 km/h
14.10.2018 05:00 10,1 C 79 % 1022,9 hPa 0,0 l/m 0,0 km/h N 6,7 C 10,1 C 0,0 km/h
14.10.2018 06:00 8,8 C 80 % 1022,7 hPa 0,0 l/m 0,0 km/h N 5,4 C 8,8 C 0,0 km/h
14.10.2018 07:00 7,9 C 81 % 1022,7 hPa 0,0 l/m 0,0 km/h N 4,8 C 7,9 C 0,0 km/h
14.10.2018 08:00 8,4 C 80 % 1022,8 hPa 0,0 l/m 0,0 km/h N 5,2 C 8,4 C 0,8 km/h
14.10.2018 09:00 10,3 C 80 % 1022,9 hPa 0,0 l/m 0,0 km/h N 7,0 C 10,3 C 1,6 km/h
14.10.2018 10:00 13,4 C 80 % 1022,5 hPa 0,0 l/m 0,2 km/h N 10,0 C 13,4 C 4,8 km/h
14.10.2018 11:00 18,5 C 65 % 1022,0 hPa 0,0 l/m 1,1 km/h N 11,8 C 18,5 C 6,4 km/h
14.10.2018 12:00 21,2 C 54 % 1021,5 hPa 0,0 l/m 2,5 km/h N 11,4 C 21,2 C 9,3 km/h
14.10.2018 13:00 22,1 C 40 % 1020,9 hPa 0,0 l/m 4,1 km/h N 7,7 C 22,1 C 10,5 km/h
14.10.2018 14:00 21,8 C 37 % 1020,6 hPa 0,0 l/m 4,8 km/h N 6,3 C 21,8 C 14,9 km/h
14.10.2018 15:00 21,8 C 37 % 1020,4 hPa 0,0 l/m 4,7 km/h N 6,4 C 21,8 C 18,1 km/h
14.10.2018 16:00 20,9 C 39 % 1020,3 hPa 0,0 l/m 3,9 km/h N 6,4 C 20,9 C 12,1 km/h
14.10.2018 17:00 20,1 C 40 % 1020,5 hPa 0,0 l/m 1,9 km/h N 6,1 C 20,1 C 8,1 km/h
14.10.2018 18:00 18,8 C 45 % 1020,6 hPa 0,0 l/m 0,1 km/h N 6,4 C 18,8 C 3,2 km/h
14.10.2018 19:00 17,0 C 48 % 1020,9 hPa 0,0 l/m 0,0 km/h N 6,0 C 17,0 C 1,2 km/h
14.10.2018 20:00 15,3 C 52 % 1021,0 hPa 0,0 l/m 0,0 km/h N 5,5 C 15,3 C 0,4 km/h
14.10.2018 21:00 13,7 C 58 % 1021,0 hPa 0,0 l/m 0,0 km/h N 5,4 C 13,7 C 0,8 km/h
14.10.2018 22:00 11,7 C 63 % 1021,0 hPa 0,0 l/m 0,0 km/h N 4,9 C 11,7 C 0,0 km/h
14.10.2018 23:00 10,1 C 68 % 1020,7 hPa 0,0 l/m 0,0 km/h N 4,5 C 10,1 C 0,0 km/h
Min-Datum _ 13.10.18 14.10.18 08.10.18 - 08.10.18 - 13.10.18 13.10.18 08.10.18
_ Min-Zeit 07:30 14:30 00:15 - 18:45 - 07:00 07:00 18:45
Minimum _ 5,5 C 36 % 1017,2 hPa - 0,0 km/h - 2,6 C 5,6 C 0,0 km/h
Max-Datum _ 11.10.18 09.10.18 13.10.18 10.10.18 08.10.18 - 10.10.18 11.10.18 14.10.18
_ Max-Zeit 13:30 08:15 10:00 07:45 11:00 - 12:30 13:15 15:15
Maximum _ 23,7 C 82 % 1028,1 hPa 0,3 l/m 6,9 km/h
N
- 15,7 C 23,6 C 29,0 km/h
N
Durchschnitt _ 14,7 C 71 % 1023,0 hPa #0,3 l/m 0,9 km/h N 9,1 C 14,7 C 4,1 km/h